Airport View

Enter AWOS ICAO identifier for current METAR.

ex. KFNL

KGRD 280156Z AUTO 15004KT 10SM SCT039 BKN050 OVC055 19/19 A2999 RMK AO2 SLP150 T01940194

28 Sep 2020 02:07

Frequency: 121.125

Phone: 864-388-9115

Other Area AWOS: KLUX - KEOE - KAND - KGYH

TAF AMD KAND 280125Z 2801/2824 15005KT P6SM SCT015 BKN025 FM280400 18004KT 5SM BR VCSH BKN008 BKN015 TEMPO 2807/2811 2SM -SHRA BR OVC004 FM281600 20007KT P6SM VCSH SCT020 BKN040 PROB30 2818/2822 4SM TSRA BR OVC015CB